Time;durP1;ratioP1;P1;durP2;ratioP2;P2;SDS_P1;SDS_P2;PMS_P1;PMS_P2;Temp;Humidity;BMP_temperature;BMP_pressure;BME280_temperature;BME280_humidity;BME280_pressure;Samples;Min_cycle;Max_cycle;Signal;HPM_P1;HPM_P2
2023/05/27 01:48:37;;;;;;;12.30;3.78;;;;;;;14.97;49.68;100601.28;1087532;54;20014;-85
2023/05/27 06:29:23;;;;;;;14.27;4.57;;;;;;;14.30;50.11;100603.66;1085812;54;20018;31
2023/05/27 06:47:27;;;;;;;11.98;3.60;;;;;;;14.82;49.01;100590.28;1086759;54;20022;-83
2023/05/27 06:48:46;;;;;;;14.35;3.72;;;;;;;14.88;48.88;100593.31;1087633;47;20115;-84
2023/05/27 10:14:52;;;;;;;12.10;4.38;;;;;;;22.33;35.84;100419.94;1087434;46;20024;-84
2023/05/27 10:20:53;;;;;;;9.27;3.72;;;;;;;23.00;35.29;100416.13;1087890;54;21134;-82
2023/05/27 10:21:55;;;;;;;8.88;4.05;;;;;;;22.95;35.15;100415.97;1087387;47;20074;-85
2023/05/27 10:24:16;;;;;;;8.27;3.92;;;;;;;22.82;35.56;100409.53;1087790;46;20065;-86
2023/05/27 10:33:07;;;;;;;10.70;4.88;;;;;;;23.91;33.92;100396.81;1084018;54;20042;-84
2023/05/27 10:37:36;;;;;;;11.15;4.50;;;;;;;23.84;32.82;100394.97;1089854;39;20636;-85
2023/05/27 10:38:43;;;;;;;10.30;4.50;;;;;;;23.53;33.07;100396.72;1087199;47;20026;-85
2023/05/27 10:39:58;;;;;;;11.45;4.70;;;;;;;24.06;32.71;100391.88;1087258;47;20038;-84
2023/05/27 10:43:20;;;;;;;9.38;3.40;;;;;;;24.03;32.24;100395.03;1087229;47;20029;-82
2023/05/27 10:44:28;;;;;;;10.60;3.97;;;;;;;24.14;32.50;100391.56;1087127;47;20026;-83
2023/05/27 10:45:37;;;;;;;10.40;4.03;;;;;;;24.05;32.42;100394.81;1089139;46;20071;-86
2023/05/27 10:46:42;;;;;;;15.25;4.93;;;;;;;23.64;33.29;100391.59;1087293;47;20007;-84
2023/05/27 10:47:52;;;;;;;9.00;3.80;;;;;;;23.63;33.26;100395.38;1087058;54;20035;-83
2023/05/27 10:48:58;;;;;;;10.25;3.60;;;;;;;23.52;33.25;100397.75;1088066;39;20873;-84
2023/05/27 10:50:11;;;;;;;8.90;3.72;;;;;;;23.45;33.16;100397.00;1087198;47;20064;-85
2023/05/27 10:52:20;;;;;;;8.98;3.70;;;;;;;23.50;33.33;100380.81;1086987;54;20079;-83
2023/05/27 10:53:26;;;;;;;8.32;3.70;;;;;;;23.61;33.28;100376.50;1086867;47;20022;-83
2023/05/27 10:54:30;;;;;;;9.98;3.95;;;;;;;23.52;33.66;100384.13;1087355;54;20019;-84
2023/05/27 10:58:06;;;;;;;12.75;3.97;;;;;;;23.02;33.62;100384.88;1087240;39;21105;-85
2023/05/27 10:59:25;;;;;;;11.88;3.33;;;;;;;23.33;33.36;100385.16;1077057;39;21470;-84
2023/05/27 11:00:29;;;;;;;7.93;3.53;;;;;;;23.35;33.39;100378.41;1087890;54;20074;-88
2023/05/27 11:01:38;;;;;;;11.65;3.85;;;;;;;23.25;33.87;100378.06;1088109;54;20026;-84
2023/05/27 11:02:40;;;;;;;10.52;4.20;;;;;;;23.25;33.52;100369.03;1088001;46;20010;-84
2023/05/27 11:06:04;;;;;;;11.65;4.45;;;;;;;23.16;33.03;100379.34;1087953;54;20027;-86
2023/05/27 11:07:06;;;;;;;9.77;3.65;;;;;;;23.35;33.06;100372.09;1087844;54;20124;-83
2023/05/27 11:08:14;;;;;;;9.13;3.45;;;;;;;23.47;32.68;100364.88;1087462;46;20076;-84
2023/05/27 11:09:18;;;;;;;8.90;3.70;;;;;;;23.19;33.40;100357.97;1087469;54;20026;-85
2023/05/27 11:10:22;;;;;;;13.25;4.30;;;;;;;23.09;33.37;100356.75;1087946;54;20030;-82
2023/05/27 11:11:24;;;;;;;14.68;4.25;;;;;;;22.99;33.49;100363.53;1087587;47;20022;-86
2023/05/27 11:12:29;;;;;;;8.45;3.60;;;;;;;23.18;33.49;100356.28;1087522;54;20090;-85
2023/05/27 11:13:32;;;;;;;7.00;3.13;;;;;;;23.46;33.18;100356.94;1087529;47;20022;-84
2023/05/27 11:14:35;;;;;;;8.82;3.38;;;;;;;23.43;33.09;100362.81;1087346;47;20038;-82
2023/05/27 11:15:40;;;;;;;9.48;4.20;;;;;;;23.17;33.18;100361.94;1087449;54;20056;-81
2023/05/27 11:16:51;;;;;;;10.77;3.88;;;;;;;23.31;33.00;100354.53;1087248;54;20037;-81
2023/05/27 11:17:52;;;;;;;8.68;3.17;;;;;;;23.52;32.62;100356.03;1087384;54;20038;-85
2023/05/27 11:18:59;;;;;;;8.82;3.53;;;;;;;23.59;32.21;100351.34;1087567;47;20034;-84
2023/05/27 11:22:22;;;;;;;10.10;3.58;;;;;;;23.64;32.37;100353.41;1084189;54;20015;-87
2023/05/27 11:23:43;;;;;;;9.30;3.85;;;;;;;23.55;31.47;100349.28;1087443;47;20034;-84
2023/05/27 11:24:58;;;;;;;9.43;3.33;;;;;;;23.23;31.91;100357.53;1087757;54;20030;-86
2023/05/27 11:27:18;;;;;;;10.00;3.78;;;;;;;22.95;32.43;100345.94;1087356;54;20087;-84
2023/05/27 11:28:20;;;;;;;11.60;4.55;;;;;;;22.76;32.14;100350.47;1087974;46;20034;-83
2023/05/27 11:29:27;;;;;;;9.32;4.22;;;;;;;22.90;32.35;100349.31;1087711;54;20034;-86
2023/05/27 11:31:40;;;;;;;7.97;3.60;;;;;;;23.40;31.64;100344.16;1087753;54;20015;-85
2023/05/27 11:32:42;;;;;;;11.20;4.28;;;;;;;23.18;31.87;100349.97;1087650;47;20026;-83
2023/05/27 11:33:47;;;;;;;7.75;3.58;;;;;;;23.14;31.83;100343.28;1087457;54;20038;-83
2023/05/27 11:34:48;;;;;;;8.57;3.72;;;;;;;23.23;31.86;100352.06;1087519;46;20066;-87
2023/05/27 11:37:07;;;;;;;8.95;3.50;;;;;;;23.19;31.89;100338.06;1084517;54;20927;-86
2023/05/27 11:44:26;;;;;;;9.30;3.78;;;;;;;23.23;30.90;100328.34;1086752;54;20035;-85
2023/05/27 11:45:27;;;;;;;8.82;4.15;;;;;;;23.20;31.08;100337.81;1087323;46;20034;-83
2023/05/27 11:46:44;;;;;;;9.70;3.63;;;;;;;23.02;31.07;100332.25;1087555;47;20055;-85
2023/05/27 11:48:57;;;;;;;10.65;3.50;;;;;;;23.08;31.12;100325.91;1087748;46;20030;-85
2023/05/27 11:50:06;;;;;;;8.93;4.30;;;;;;;23.28;31.07;100322.22;1087450;47;20106;-85
2023/05/27 11:54:01;;;;;;;9.75;4.10;;;;;;;23.27;30.76;100323.28;1086367;39;20870;31
2023/05/27 11:56:11;;;;;;;9.02;3.58;;;;;;;23.16;31.19;100309.28;1086598;54;20011;-85
2023/05/27 11:57:14;;;;;;;9.18;3.42;;;;;;;23.16;30.95;100309.28;1087436;46;20042;-84
2023/05/27 11:58:19;;;;;;;9.20;3.55;;;;;;;23.33;30.87;100317.78;1087488;46;20037;-86
2023/05/27 11:59:25;;;;;;;11.95;3.95;;;;;;;23.38;30.79;100316.28;1087632;54;20061;-83
2023/05/27 12:00:34;;;;;;;13.13;4.55;;;;;;;23.39;30.89;100307.88;1087496;46;20091;-83
2023/05/27 12:01:36;;;;;;;11.75;3.97;;;;;;;23.50;30.78;100307.16;1087277;54;20449;-82
2023/05/27 12:03:48;;;;;;;7.55;3.78;;;;;;;23.50;31.05;100307.16;1087934;54;20026;-85
2023/05/27 12:04:49;;;;;;;9.43;3.72;;;;;;;23.55;30.84;100308.34;1087712;46;20042;-85
2023/05/27 12:05:54;;;;;;;10.48;4.75;;;;;;;23.23;31.28;100303.81;1087761;54;20055;-86
2023/05/27 12:07:00;;;;;;;7.93;4.00;;;;;;;23.38;31.27;100299.94;1087649;46;20031;-87
2023/05/27 12:08:03;;;;;;;8.52;3.80;;;;;;;23.27;31.07;100298.75;1087960;39;20327;-83
2023/05/27 12:09:09;;;;;;;10.88;4.35;;;;;;;23.23;31.43;100303.81;1087523;54;20032;-81
2023/05/27 12:10:10;;;;;;;10.13;4.43;;;;;;;23.25;31.33;100289.94;1087807;54;20014;-83
2023/05/27 12:12:17;;;;;;;9.52;3.85;;;;;;;23.43;31.45;100298.16;1087495;54;20034;-82
2023/05/27 12:13:19;;;;;;;8.10;3.70;;;;;;;23.37;31.83;100296.34;1085104;47;20120;31
2023/05/27 12:14:23;;;;;;;7.15;3.15;;;;;;;23.62;31.30;100290.00;1085243;39;20948;31
2023/05/27 12:15:34;;;;;;;7.30;3.33;;;;;;;23.81;30.87;100293.63;1087966;54;20030;-85
2023/05/27 12:20:09;;;;;;;8.45;3.90;;;;;;;23.88;30.93;100288.91;1087776;54;20034;-84
2023/05/27 12:22:27;;;;;;;7.57;3.47;;;;;;;24.15;30.54;100283.16;1087975;54;20022;-89
2023/05/27 12:23:30;;;;;;;9.18;4.38;;;;;;;23.72;30.62;100273.97;1087997;54;20026;-85
2023/05/27 12:24:34;;;;;;;12.20;4.13;;;;;;;23.49;31.05;100275.47;1087847;46;20041;-84
2023/05/27 12:25:36;;;;;;;9.85;3.72;;;;;;;23.53;31.28;100273.94;1087675;46;20051;-84
2023/05/27 12:27:45;;;;;;;10.00;3.95;;;;;;;23.58;31.31;100264.25;1087667;54;20098;-85
2023/05/27 12:28:47;;;;;;;10.48;3.50;;;;;;;23.63;31.16;100262.53;1087660;54;20031;-86
2023/05/27 12:29:51;;;;;;;10.32;4.03;;;;;;;23.69;31.29;100263.53;1087298;47;20045;-83
2023/05/27 12:30:59;;;;;;;10.77;4.15;;;;;;;23.77;30.92;100265.94;1087304;54;20050;-83
2023/05/27 12:33:13;;;;;;;7.40;3.83;;;;;;;24.02;30.34;100256.84;1087619;54;20034;-84
2023/05/27 12:34:18;;;;;;;9.40;3.97;;;;;;;24.08;29.84;100260.56;1087660;46;20034;-85
2023/05/27 12:36:01;;;;;;;9.27;4.07;;;;;;;23.96;30.01;100252.31;1087581;54;20496;-83
2023/05/27 12:38:08;;;;;;;7.63;3.22;;;;;;;24.18;30.15;100260.03;1087957;54;20006;-85
2023/05/27 12:39:09;;;;;;;7.50;3.50;;;;;;;24.26;29.87;100244.16;1087110;47;20111;-83
2023/05/27 12:40:14;;;;;;;9.80;4.05;;;;;;;24.12;30.16;100253.59;1087386;54;20033;-81
2023/05/27 12:41:19;;;;;;;11.23;3.75;;;;;;;24.04;30.25;100253.91;1087191;47;20047;-80
2023/05/27 12:42:21;;;;;;;7.95;3.47;;;;;;;23.97;30.35;100243.91;1093995;39;20609;-85
2023/05/27 12:43:25;;;;;;;7.05;3.47;;;;;;;23.89;30.39;100240.63;1087922;54;20073;-86
2023/05/27 12:44:26;;;;;;;9.45;4.00;;;;;;;23.84;30.97;100239.41;1087396;46;20079;-83
2023/05/27 12:45:30;;;;;;;8.68;3.75;;;;;;;23.87;30.50;100242.75;1087096;47;20026;-83
2023/05/27 12:46:33;;;;;;;8.40;3.10;;;;;;;23.90;30.69;100242.31;1087188;54;20117;-85
2023/05/27 12:47:37;;;;;;;10.60;4.07;;;;;;;23.75;30.76;100238.03;1087581;46;20035;-85
2023/05/27 12:48:41;;;;;;;10.20;3.65;;;;;;;23.75;30.17;100243.50;1087684;54;20042;-87
2023/05/27 12:50:46;;;;;;;12.23;3.95;;;;;;;24.00;29.43;100242.59;1087466;54;20010;-84
2023/05/27 12:51:50;;;;;;;9.85;4.18;;;;;;;24.18;29.04;100238.19;1087429;54;20094;-81
2023/05/27 12:52:52;;;;;;;6.97;3.10;;;;;;;24.35;28.97;100236.50;1087140;47;20023;-84
2023/05/27 12:53:56;;;;;;;6.47;3.22;;;;;;;24.34;28.76;100237.56;1087364;54;20038;-82
2023/05/27 12:54:57;;;;;;;7.18;3.47;;;;;;;24.19;28.78;100242.56;1087556;54;20030;-84
2023/05/27 12:56:01;;;;;;;9.60;4.00;;;;;;;24.19;28.69;100231.66;1087431;47;20015;-84
2023/05/27 12:57:04;;;;;;;7.43;3.58;;;;;;;24.24;28.88;100240.81;1087526;54;20074;-82
2023/05/27 12:58:08;;;;;;;7.93;3.53;;;;;;;24.23;28.65;100238.31;1087208;39;20255;-84
2023/05/27 12:59:10;;;;;;;10.40;4.22;;;;;;;23.87;28.91;100238.09;1087549;54;20031;-83
2023/05/27 13:00:15;;;;;;;10.85;4.45;;;;;;;23.77;28.49;100233.19;1087461;47;20094;-83
2023/05/27 13:02:30;;;;;;;9.68;3.55;;;;;;;23.89;27.95;100226.97;1088216;54;20030;-84
2023/05/27 13:03:34;;;;;;;6.72;3.53;;;;;;;24.14;27.99;100233.19;1087515;46;20031;-84
2023/05/27 13:05:53;;;;;;;9.27;3.78;;;;;;;23.90;28.03;100232.19;1080542;54;20937;-84
2023/05/27 13:06:55;;;;;;;7.53;3.10;;;;;;;23.82;28.61;100229.78;1087885;54;20044;-85
2023/05/27 13:09:08;;;;;;;9.23;3.60;;;;;;;23.86;28.63;100220.06;1075477;39;21421;-85
2023/05/27 13:11:27;;;;;;;6.70;3.08;;;;;;;24.22;27.61;100212.06;1087620;54;20038;-86
2023/05/27 13:13:39;;;;;;;8.23;3.17;;;;;;;24.34;26.92;100220.31;1087561;54;20034;-85
2023/05/27 13:14:50;;;;;;;8.10;3.13;;;;;;;24.39;26.21;100218.56;1084497;47;23208;-85
2023/05/27 13:16:05;;;;;;;8.70;3.55;;;;;;;24.51;26.07;100220.50;1085886;54;20037;31
2023/05/27 13:17:06;;;;;;;6.40;2.80;;;;;;;24.60;25.97;100219.09;1087587;54;20173;-82
2023/05/27 13:18:10;;;;;;;7.22;3.00;;;;;;;24.67;25.55;100208.06;1083706;47;20097;-84
2023/05/27 13:19:13;;;;;;;6.18;2.97;;;;;;;24.68;25.36;100213.31;1087551;54;20062;-83
2023/05/27 13:20:18;;;;;;;10.60;3.83;;;;;;;24.30;24.98;100209.03;1087119;47;20102;-84
2023/05/27 13:21:19;;;;;;;7.68;3.10;;;;;;;24.09;24.95;100213.09;1086785;46;20131;-83
2023/05/27 13:22:22;;;;;;;8.77;2.92;;;;;;;24.04;25.23;100205.59;1087129;47;20030;-83
2023/05/27 13:29:42;;;;;;;9.23;3.33;;;;;;;24.41;26.91;100205.50;1088115;54;20027;-83
2023/05/27 13:30:45;;;;;;;7.68;2.80;;;;;;;24.36;26.72;100202.66;1087347;46;20023;-84
2023/05/27 13:32:51;;;;;;;5.95;3.05;;;;;;;24.42;27.18;100189.94;1087941;54;20017;-85
2023/05/27 13:33:52;;;;;;;7.43;3.45;;;;;;;24.34;27.06;100187.53;1087208;46;20027;-85
2023/05/27 13:34:58;;;;;;;8.13;2.92;;;;;;;24.30;27.14;100192.63;1087166;47;20031;-83
2023/05/27 13:36:02;;;;;;;9.95;2.88;;;;;;;24.23;26.30;100194.63;1087139;47;20066;-83
2023/05/27 13:37:04;;;;;;;7.22;3.08;;;;;;;24.49;25.89;100198.03;1087290;54;20030;-85
2023/05/27 13:38:12;;;;;;;7.90;3.20;;;;;;;24.58;25.68;100191.16;1090152;39;20730;-86
2023/05/27 13:39:13;;;;;;;6.13;2.42;;;;;;;24.70;25.37;100183.84;1087467;46;20089;-86
2023/05/27 13:40:18;;;;;;;10.32;3.05;;;;;;;24.45;24.10;100178.53;1087193;54;20059;-83
2023/05/27 13:41:19;;;;;;;7.15;3.40;;;;;;;24.23;24.25;100192.72;1087133;46;20086;-83
2023/05/27 13:42:24;;;;;;;8.45;3.22;;;;;;;24.09;24.07;100180.34;1087084;47;20082;-84
2023/05/27 13:43:25;;;;;;;6.30;2.65;;;;;;;24.26;23.72;100178.59;1086904;54;21001;-83
2023/05/27 13:44:29;;;;;;;7.32;2.78;;;;;;;24.21;23.81;100183.94;1087293;54;20883;-86
2023/05/27 13:46:41;;;;;;;7.95;2.70;;;;;;;24.30;23.47;100187.16;1087719;54;21146;-82
2023/05/27 13:47:45;;;;;;;5.82;2.75;;;;;;;24.14;23.56;100178.56;1087526;46;20495;-84
2023/05/27 13:48:49;;;;;;;5.78;2.67;;;;;;;24.26;23.50;100181.34;1087288;54;20022;-83
2023/05/27 13:49:56;;;;;;;7.40;2.80;;;;;;;24.23;23.69;100179.06;1088186;39;20729;-84
2023/05/27 13:51:00;;;;;;;9.55;2.67;;;;;;;24.43;23.71;100178.78;1087570;54;20035;-84
2023/05/27 13:52:02;;;;;;;7.88;2.78;;;;;;;24.53;23.93;100178.19;1087139;54;20042;-85
2023/05/27 13:53:06;;;;;;;6.30;2.78;;;;;;;24.67;24.01;100176.09;1087486;54;20041;-85
2023/05/27 13:54:07;;;;;;;7.40;2.90;;;;;;;24.79;23.94;100180.78;1087328;47;20048;-86
2023/05/27 13:55:12;;;;;;;6.57;2.95;;;;;;;24.80;23.63;100163.31;1087223;54;20023;-85
2023/05/27 13:56:13;;;;;;;9.50;2.83;;;;;;;24.65;23.77;100164.59;1087231;47;20443;-87
2023/05/27 13:57:17;;;;;;;7.00;3.20;;;;;;;24.68;24.00;100172.31;1087235;54;20059;-83
2023/05/27 13:58:21;;;;;;;7.28;2.55;;;;;;;24.76;24.13;100169.25;1087544;54;20031;-86
2023/05/27 13:59:23;;;;;;;7.03;2.80;;;;;;;24.70;23.79;100159.25;1087188;46;20101;-83
2023/05/27 14:00:27;;;;;;;6.47;2.58;;;;;;;24.59;23.68;100162.78;1087000;47;20031;-83
2023/05/27 14:01:28;;;;;;;6.35;3.05;;;;;;;24.54;23.69;100168.94;1087058;54;20038;-85
2023/05/27 14:02:32;;;;;;;13.90;3.88;;;;;;;24.49;23.78;100167.97;1087414;46;20010;-87
2023/05/27 14:03:34;;;;;;;8.70;3.33;;;;;;;24.56;23.95;100166.00;1086978;54;20090;-85
2023/05/27 14:04:52;;;;;;;5.57;2.40;;;;;;;24.77;23.77;100159.97;1087143;47;20022;-86
2023/05/27 14:06:01;;;;;;;6.38;3.08;;;;;;;24.96;23.18;100157.13;1087135;54;20061;-85
2023/05/27 14:07:03;;;;;;;9.52;3.53;;;;;;;24.88;23.46;100166.53;1087230;54;20341;-81
2023/05/27 14:08:09;;;;;;;8.32;5.13;;;;;;;24.65;23.48;100153.66;1087271;47;20037;-83
2023/05/27 14:09:25;;;;;;;9.15;4.07;;;;;;;24.71;23.46;100152.72;1087317;46;20839;-85
2023/05/27 14:10:29;;;;;;;7.28;2.90;;;;;;;24.43;23.88;100148.75;1087282;47;20112;-87
2023/05/27 14:11:30;;;;;;;7.97;2.58;;;;;;;24.55;23.65;100151.47;1087012;54;20058;-84
2023/05/27 14:12:34;;;;;;;6.35;3.10;;;;;;;24.81;23.17;100145.84;1088143;39;20774;-83
2023/05/27 14:13:36;;;;;;;7.00;3.05;;;;;;;24.79;23.05;100143.38;1087509;46;20034;-84
2023/05/27 14:14:40;;;;;;;6.53;2.67;;;;;;;24.89;22.90;100145.50;1089087;39;20171;-86
2023/05/27 14:16:51;;;;;;;5.10;2.38;;;;;;;25.67;22.47;100135.19;1087377;54;20027;-83
2023/05/27 14:17:52;;;;;;;7.82;3.05;;;;;;;25.76;22.55;100134.78;1087416;47;20049;-84
2023/05/27 14:19:59;;;;;;;7.10;2.75;;;;;;;25.63;22.72;100139.47;1086315;54;20022;-81
2023/05/27 14:21:03;;;;;;;5.85;3.00;;;;;;;25.76;22.86;100132.88;1087262;47;20161;-81
2023/05/27 14:22:07;;;;;;;7.85;3.25;;;;;;;25.76;22.82;100137.53;1087231;54;21150;-83
2023/05/27 14:23:13;;;;;;;6.80;2.70;;;;;;;25.99;22.73;100125.66;1087367;47;20074;-82
2023/05/27 14:24:15;;;;;;;9.13;3.08;;;;;;;26.46;22.59;100127.31;1087434;54;20034;-82
2023/05/27 14:25:20;;;;;;;6.72;3.03;;;;;;;26.86;22.36;100131.81;1086926;47;20026;-82
2023/05/27 14:26:21;;;;;;;7.90;2.80;;;;;;;26.90;22.11;100123.91;1086746;47;20031;-85
2023/05/27 14:27:25;;;;;;;8.27;2.97;;;;;;;26.96;22.10;100119.34;1086548;46;20042;-80
2023/05/27 14:29:31;;;;;;;6.95;2.97;;;;;;;26.36;22.61;100121.66;1087602;54;20030;-83
2023/05/27 14:30:36;;;;;;;8.07;3.00;;;;;;;26.34;22.63;100121.09;1087099;47;20053;-81
2023/05/27 14:31:40;;;;;;;6.25;2.78;;;;;;;26.63;22.59;100119.94;1086986;54;20042;-82
2023/05/27 14:32:41;;;;;;;7.10;2.80;;;;;;;26.76;22.22;100110.53;1087255;54;20026;-83
2023/05/27 14:33:44;;;;;;;7.07;3.10;;;;;;;26.88;22.24;100115.94;1087140;54;20049;-84
2023/05/27 14:34:48;;;;;;;6.22;3.00;;;;;;;26.49;21.81;100113.13;1087370;54;20034;-83
2023/05/27 14:35:49;;;;;;;7.90;3.05;;;;;;;26.69;21.82;100106.28;1087238;54;20051;-80
2023/05/27 14:36:55;;;;;;;6.88;2.70;;;;;;;26.89;21.76;100109.38;1086759;47;20061;-82
2023/05/27 14:37:56;;;;;;;7.55;2.90;;;;;;;26.62;21.72;100111.94;1086950;47;20026;-83
2023/05/27 14:39:03;;;;;;;8.45;3.35;;;;;;;26.36;22.07;100106.06;1086936;47;20079;-84
2023/05/27 14:40:08;;;;;;;7.88;3.03;;;;;;;26.27;21.67;100105.63;1087978;39;20255;-82
2023/05/27 14:41:09;;;;;;;9.05;3.08;;;;;;;26.37;21.69;100106.88;1086787;54;20030;-84
2023/05/27 14:42:13;;;;;;;6.30;3.03;;;;;;;26.75;21.44;100110.75;1086675;54;20065;-83
2023/05/27 14:43:14;;;;;;;8.10;2.80;;;;;;;26.82;21.21;100105.16;1086843;47;20098;-84
2023/05/27 14:44:17;;;;;;;5.88;2.30;;;;;;;27.04;20.68;100103.28;1086922;47;20026;-83
2023/05/27 14:45:20;;;;;;;7.45;3.13;;;;;;;27.05;20.47;100104.94;1086691;54;20038;-83
2023/05/27 14:46:24;;;;;;;6.78;2.72;;;;;;;26.63;21.22;100106.22;1086808;47;20030;-82
2023/05/27 14:47:25;;;;;;;7.53;2.63;;;;;;;26.78;20.97;100102.06;1086725;54;20067;-82
2023/05/27 14:48:29;;;;;;;5.28;2.10;;;;;;;26.53;21.11;100107.97;1087586;39;20888;-83
2023/05/27 14:49:31;;;;;;;6.10;3.00;;;;;;;26.16;21.62;100101.06;1087193;47;20055;-82
2023/05/27 14:50:35;;;;;;;7.85;2.78;;;;;;;26.36;21.54;100100.56;1086820;47;20023;-82
2023/05/27 14:51:39;;;;;;;7.00;2.72;;;;;;;26.46;21.41;100094.41;1086575;47;20057;-81
2023/05/27 14:52:42;;;;;;;6.43;2.60;;;;;;;26.42;21.56;100101.50;1086789;47;20049;-84
2023/05/27 14:53:46;;;;;;;8.02;3.00;;;;;;;26.16;22.08;100092.84;1087014;47;20052;-84
2023/05/27 14:54:47;;;;;;;8.57;2.60;;;;;;;26.04;22.05;100103.00;1087263;39;20928;-85
2023/05/27 14:55:51;;;;;;;7.70;2.88;;;;;;;25.91;22.44;100096.75;1086746;54;20034;-83
2023/05/27 14:56:52;;;;;;;6.90;2.90;;;;;;;25.97;22.69;100101.25;1087290;39;20324;-83
2023/05/27 14:57:56;;;;;;;8.07;2.90;;;;;;;26.45;22.06;100090.03;1086819;54;20038;-81
2023/05/27 14:58:57;;;;;;;8.43;2.75;;;;;;;26.23;22.31;100098.16;1086825;47;20030;-83
2023/05/27 15:00:01;;;;;;;8.25;2.70;;;;;;;26.31;22.49;100097.72;1086806;54;20030;-84
2023/05/27 15:01:02;;;;;;;8.45;2.40;;;;;;;26.41;22.21;100099.81;1086840;54;20051;-84
2023/05/27 15:02:06;;;;;;;6.78;2.67;;;;;;;26.11;22.10;100101.81;1086992;47;20031;-85
2023/05/27 15:03:07;;;;;;;8.27;2.85;;;;;;;25.95;22.60;100099.81;1087163;47;20049;-84
2023/05/27 15:04:11;;;;;;;6.65;2.67;;;;;;;26.14;22.51;100095.81;1086720;47;20037;-84
2023/05/27 15:05:15;;;;;;;6.20;2.28;;;;;;;26.20;22.41;100094.00;1086728;54;20869;-82
2023/05/27 15:06:19;;;;;;;9.15;3.13;;;;;;;26.05;22.71;100090.97;1086781;54;20027;-81
2023/05/27 15:07:22;;;;;;;7.55;2.97;;;;;;;25.92;22.47;100092.13;1087004;47;20023;-81
2023/05/27 15:08:28;;;;;;;7.65;2.67;;;;;;;25.95;22.53;100097.94;1086547;54;20039;-84
2023/05/27 15:09:32;;;;;;;8.13;3.05;;;;;;;26.01;22.65;100096.94;1086690;54;20035;-84
2023/05/27 15:10:33;;;;;;;7.93;2.92;;;;;;;26.07;22.56;100086.91;1086652;47;20026;-83
2023/05/27 15:11:37;;;;;;;7.70;2.42;;;;;;;26.12;22.17;100088.94;1086743;47;20038;-81
2023/05/27 15:12:40;;;;;;;6.07;2.35;;;;;;;26.31;22.10;100087.63;1086545;47;20022;-83
2023/05/27 15:13:43;;;;;;;8.48;2.60;;;;;;;26.07;22.13;100081.44;1086678;47;20117;-81
2023/05/27 15:14:45;;;;;;;8.52;3.65;;;;;;;25.75;22.06;100086.59;1087736;39;20362;-83
2023/05/27 15:15:49;;;;;;;7.25;2.90;;;;;;;25.66;22.14;100087.00;1086923;47;20027;-84
2023/05/27 15:16:50;;;;;;;7.90;2.70;;;;;;;25.94;22.24;100085.31;1086907;47;20023;-81
2023/05/27 15:17:55;;;;;;;9.02;3.10;;;;;;;25.73;22.22;100088.72;1086775;54;20026;-84
2023/05/27 15:18:59;;;;;;;5.88;2.60;;;;;;;25.45;22.32;100084.91;1086932;54;20034;-82
2023/05/27 15:20:00;;;;;;;7.60;3.25;;;;;;;25.26;22.44;100098.72;1086860;46;20069;-80
2023/05/27 15:21:03;;;;;;;5.80;2.65;;;;;;;25.10;23.03;100097.56;1086744;47;20054;-83
2023/05/27 15:22:06;;;;;;;7.47;2.97;;;;;;;25.28;22.69;100090.28;1086716;47;20058;-81
2023/05/27 15:23:09;;;;;;;7.20;2.67;;;;;;;25.23;22.79;100096.47;1086608;54;20047;-81
2023/05/27 15:24:13;;;;;;;6.57;2.72;;;;;;;25.12;23.03;100092.69;1086355;54;20041;-81
2023/05/27 15:25:17;;;;;;;7.38;2.78;;;;;;;25.04;23.44;100091.16;1086883;47;20033;-83
2023/05/27 15:26:18;;;;;;;6.10;2.78;;;;;;;25.08;23.54;100089.59;1093794;39;21191;-84
2023/05/27 15:27:22;;;;;;;8.48;2.83;;;;;;;25.06;23.58;100097.22;1090689;39;20369;-85
2023/05/27 15:28:26;;;;;;;6.47;2.72;;;;;;;25.25;23.84;100088.84;1086836;54;20061;-84
2023/05/27 15:30:56;;;;;;;6.63;3.28;;;;;;;24.98;24.15;100088.56;1087262;54;19995;-86
2023/05/27 15:31:58;;;;;;;7.35;3.35;;;;;;;25.00;24.26;100081.78;1086995;47;20035;-83
2023/05/27 15:33:01;;;;;;;6.60;2.95;;;;;;;25.05;24.21;100081.88;1087477;39;20983;-85
2023/05/27 15:34:05;;;;;;;6.53;3.28;;;;;;;25.29;24.14;100078.25;1086764;47;20029;-79
2023/05/27 15:35:08;;;;;;;7.15;2.78;;;;;;;25.31;24.16;100076.97;1086736;47;20018;-84
2023/05/27 15:37:13;;;;;;;5.20;2.00;;;;;;;25.70;23.89;100079.13;1087287;54;20011;-84
2023/05/27 15:38:15;;;;;;;6.30;2.55;;;;;;;25.66;23.97;100081.50;1086816;47;20026;-84
2023/05/27 15:39:21;;;;;;;9.13;2.90;;;;;;;25.48;24.61;100076.22;1086767;47;20393;-84
2023/05/27 15:40:22;;;;;;;6.82;2.67;;;;;;;25.53;24.75;100087.25;1086746;47;20027;-83
2023/05/27 15:41:26;;;;;;;7.25;3.03;;;;;;;25.39;24.94;100081.22;1086581;54;20034;-83
2023/05/27 15:42:27;;;;;;;10.88;3.30;;;;;;;25.21;24.65;100074.84;1086865;47;20816;-83
2023/05/27 15:43:30;;;;;;;7.20;2.80;;;;;;;25.25;24.84;100086.13;1086968;47;20031;-84
2023/05/27 15:44:31;;;;;;;8.30;3.25;;;;;;;25.25;24.39;100072.44;1087018;47;20694;-85
2023/05/27 15:45:35;;;;;;;6.72;2.70;;;;;;;25.20;24.49;100075.09;1092294;39;20446;-85
2023/05/27 15:46:36;;;;;;;6.78;2.90;;;;;;;25.34;24.31;100071.00;1087802;46;20076;-84
2023/05/27 15:47:39;;;;;;;6.95;2.83;;;;;;;25.38;24.12;100074.91;1087128;46;20027;-84
2023/05/27 15:48:41;;;;;;;8.77;3.45;;;;;;;25.47;24.00;100069.09;1087075;47;20023;-86
2023/05/27 15:49:45;;;;;;;5.55;2.08;;;;;;;25.58;24.09;100067.38;1086829;47;20897;-84
2023/05/27 15:50:48;;;;;;;7.88;3.50;;;;;;;25.25;24.57;100064.25;1087054;54;20045;-83
2023/05/27 15:51:52;;;;;;;9.05;3.40;;;;;;;24.96;24.88;100075.09;1087056;47;20037;-84
2023/05/27 15:52:53;;;;;;;9.30;3.17;;;;;;;24.95;25.11;100067.16;1087157;54;20058;-86
2023/05/27 15:53:56;;;;;;;8.70;3.40;;;;;;;24.81;24.82;100077.50;1087395;46;20057;-83
2023/05/27 15:55:03;;;;;;;10.15;3.20;;;;;;;24.83;25.06;100058.97;1087622;46;20075;-85
2023/05/27 15:56:05;;;;;;;8.23;3.13;;;;;;;24.88;25.04;100057.19;1086860;47;20119;-84
2023/05/27 15:57:09;;;;;;;6.22;2.60;;;;;;;24.88;24.85;100070.00;1087615;46;20086;-84
2023/05/27 15:58:12;;;;;;;9.93;3.70;;;;;;;24.67;24.82;100064.03;1089490;39;21177;-86
2023/05/27 15:59:13;;;;;;;6.55;2.80;;;;;;;24.64;24.55;100061.81;1087188;47;20053;-82
2023/05/27 16:01:20;;;;;;;11.07;3.47;;;;;;;24.47;24.72;100074.53;1087727;54;20102;-82
2023/05/27 16:02:21;;;;;;;7.38;3.08;;;;;;;24.50;24.91;100065.81;1087389;47;20050;-82
2023/05/27 16:03:25;;;;;;;6.80;2.78;;;;;;;24.61;24.89;100065.00;1087517;47;20042;-85
2023/05/27 16:04:26;;;;;;;8.15;2.75;;;;;;;24.84;24.70;100057.91;1087351;54;20030;-84
2023/05/27 16:05:29;;;;;;;6.35;2.47;;;;;;;25.02;24.21;100057.75;1090118;39;20921;-84
2023/05/27 16:06:31;;;;;;;12.80;2.80;;;;;;;24.95;24.31;100051.56;1087246;54;20038;-82
2023/05/27 16:07:34;;;;;;;5.50;2.42;;;;;;;24.97;24.52;100065.03;1087312;54;20045;-86
2023/05/27 16:09:42;;;;;;;7.68;3.15;;;;;;;24.94;24.76;100055.38;1087279;46;20014;-84
2023/05/27 16:10:51;;;;;;;9.27;3.00;;;;;;;24.69;24.50;100058.38;1087307;47;20046;-80
2023/05/27 16:11:55;;;;;;;7.82;2.88;;;;;;;24.54;25.21;100056.09;1087641;54;20034;-86
2023/05/27 16:12:58;;;;;;;8.05;2.90;;;;;;;24.50;25.16;100061.22;1087283;47;20027;-82
2023/05/27 16:14:00;;;;;;;6.57;2.95;;;;;;;24.35;25.12;100058.94;1088057;54;20038;-81
2023/05/27 16:15:03;;;;;;;5.15;2.30;;;;;;;24.52;25.45;100053.59;1087603;46;20061;-83
2023/05/27 16:16:05;;;;;;;6.18;2.63;;;;;;;24.66;25.38;100054.19;1087541;54;20875;-83
2023/05/27 16:17:09;;;;;;;6.43;2.72;;;;;;;24.71;25.14;100048.88;1087631;46;20042;-83
2023/05/27 16:18:12;;;;;;;7.03;2.92;;;;;;;24.58;25.39;100051.81;1087681;54;20034;-84
2023/05/27 16:19:13;;;;;;;8.73;3.72;;;;;;;24.47;25.51;100045.28;1087326;47;20026;-84
2023/05/27 16:20:17;;;;;;;8.52;2.90;;;;;;;24.61;25.30;100051.34;1087409;54;20188;-84
2023/05/27 16:21:18;;;;;;;5.50;2.55;;;;;;;24.80;25.35;100043.03;1087086;47;20027;-83
2023/05/27 16:22:22;;;;;;;6.85;2.90;;;;;;;24.65;25.57;100047.06;1087509;54;20042;-85
2023/05/27 16:23:27;;;;;;;6.28;2.40;;;;;;;24.69;25.36;100044.72;1087405;46;21076;-85
2023/05/27 16:24:28;;;;;;;10.73;3.35;;;;;;;24.71;25.36;100045.28;1086941;47;20941;-83